Time;durP1;ratioP1;P1;durP2;ratioP2;P2;SDS_P1;SDS_P2;PMS_P1;PMS_P2;Temp;Humidity;BMP_temperature;BMP_pressure;BME280_temperature;BME280_humidity;BME280_pressure;Samples;Min_cycle;Max_cycle;Signal;HPM_P1;HPM_P2
2022/04/06 00:00:04;;;;;;;9.70;6.40;;;11.50;99.90;;;;;;1051875;28;20020;-62
2022/04/06 00:00:34;;;;;;;8.95;6.45;;;11.50;99.90;;;;;;1051814;28;20022;-61
2022/04/06 00:01:05;;;;;;;9.23;6.63;;;11.50;99.90;;;;;;1051266;28;20031;-61
2022/04/06 00:01:36;;;;;;;10.67;6.73;;;11.50;99.90;;;;;;1054092;28;20028;-61
2022/04/06 00:02:06;;;;;;;11.00;7.03;;;11.50;99.90;;;;;;1056060;28;20012;-61
2022/04/06 00:02:39;;;;;;;11.03;6.60;;;11.50;99.90;;;;;;1056040;28;20102;-64
2022/04/06 00:03:10;;;;;;;10.52;6.47;;;11.40;99.90;;;;;;1055752;28;20016;-61
2022/04/06 00:03:43;;;;;;;9.00;6.83;;;11.40;99.90;;;;;;1056022;28;20004;-60
2022/04/06 00:04:14;;;;;;;9.85;6.53;;;11.40;99.90;;;;;;1051267;28;20019;-61
2022/04/06 00:04:44;;;;;;;10.77;6.57;;;11.50;99.90;;;;;;1051594;28;20040;-61
2022/04/06 00:05:15;;;;;;;8.73;6.30;;;11.40;99.90;;;;;;1051542;28;20353;-61
2022/04/06 00:05:46;;;;;;;10.13;6.50;;;11.40;99.90;;;;;;1051634;28;20177;-60
2022/04/06 00:06:16;;;;;;;12.63;7.10;;;11.40;99.90;;;;;;1047178;28;20150;-62
2022/04/06 00:06:47;;;;;;;9.10;6.53;;;11.40;99.90;;;;;;1047283;28;20012;-62
2022/04/06 00:07:17;;;;;;;10.13;6.10;;;11.40;99.90;;;;;;1047324;28;20012;-63
2022/04/06 00:07:48;;;;;;;11.83;6.67;;;11.50;99.90;;;;;;1043317;28;20067;-63
2022/04/06 00:08:19;;;;;;;9.50;6.80;;;11.40;99.90;;;;;;1051069;28;20058;-63
2022/04/06 00:08:49;;;;;;;11.47;6.90;;;11.40;99.90;;;;;;1047353;28;20499;-63
2022/04/06 00:09:20;;;;;;;9.57;6.80;;;11.40;99.90;;;;;;1047407;28;20024;-63
2022/04/06 00:09:51;;;;;;;9.25;6.22;;;11.40;99.90;;;;;;1047144;28;20020;-63
2022/04/06 00:10:21;;;;;;;10.00;6.10;;;11.40;99.90;;;;;;1043660;28;20009;-62
2022/04/06 00:10:52;;;;;;;10.80;6.50;;;11.50;99.90;;;;;;1047271;28;20086;-61
2022/04/06 00:11:23;;;;;;;9.10;7.00;;;11.40;99.90;;;;;;1047535;28;20065;-60
2022/04/06 00:11:54;;;;;;;8.40;6.35;;;11.50;99.90;;;;;;1051707;28;20462;-64
2022/04/06 00:12:25;;;;;;;11.80;7.20;;;11.40;99.90;;;;;;1056205;28;20684;-63
2022/04/06 00:12:55;;;;;;;10.38;6.50;;;11.50;99.90;;;;;;1051219;28;20038;-63
2022/04/06 00:13:26;;;;;;;8.47;5.83;;;11.40;99.90;;;;;;1051798;28;20367;-62
2022/04/06 00:13:57;;;;;;;10.17;6.67;;;11.40;99.90;;;;;;1051383;28;20510;-62
2022/04/06 00:14:28;;;;;;;11.38;6.18;;;11.40;99.90;;;;;;1051656;28;20110;-61
2022/04/06 00:14:58;;;;;;;12.47;7.23;;;11.50;99.90;;;;;;1051348;28;20019;-61
2022/04/06 00:15:29;;;;;;;11.43;7.00;;;11.40;99.90;;;;;;1051781;28;20028;-62
2022/04/06 00:15:59;;;;;;;13.33;7.73;;;11.50;99.90;;;;;;1051490;28;20008;-61
2022/04/06 00:16:30;;;;;;;11.07;6.77;;;11.40;99.90;;;;;;1056113;28;20114;-62
2022/04/06 00:17:05;;;;;;;8.63;6.10;;;11.50;99.90;;;;;;1055376;28;20083;-61
2022/04/06 00:17:36;;;;;;;10.88;6.28;;;11.50;99.90;;;;;;1051546;28;20008;-61
2022/04/06 00:18:06;;;;;;;10.05;6.07;;;11.40;99.90;;;;;;1051462;28;20004;-62
2022/04/06 00:18:37;;;;;;;12.40;6.47;;;11.40;99.90;;;;;;1051622;28;20019;-62
2022/04/06 00:19:07;;;;;;;10.00;6.13;;;11.50;99.90;;;;;;1051208;28;20019;-61
2022/04/06 00:19:38;;;;;;;11.07;6.17;;;11.40;99.90;;;;;;1052024;28;20008;-61
2022/04/06 00:20:09;;;;;;;12.47;6.97;;;11.40;99.90;;;;;;1047063;28;20021;-61
2022/04/06 00:20:40;;;;;;;11.57;6.45;;;11.50;99.90;;;;;;1047538;28;20016;-61
2022/04/06 00:21:14;;;;;;;9.00;6.43;;;11.50;99.90;;;;;;1047229;28;20031;-61
2022/04/06 00:21:45;;;;;;;8.98;6.03;;;11.40;99.90;;;;;;1047433;28;20128;-61
2022/04/06 00:22:15;;;;;;;8.98;6.32;;;11.40;99.90;;;;;;1049933;28;20101;-61
2022/04/06 00:22:46;;;;;;;9.07;6.17;;;11.40;99.90;;;;;;1051673;28;20016;-61
2022/04/06 00:23:17;;;;;;;12.37;6.37;;;11.50;99.90;;;;;;1051338;28;20616;-63
2022/04/06 00:23:47;;;;;;;10.50;6.00;;;11.40;99.90;;;;;;1056109;28;20016;-62
2022/04/06 00:24:17;;;;;;;7.80;6.60;;;11.40;99.90;;;;;;1051085;28;20348;-61
2022/04/06 00:24:48;;;;;;;10.40;6.27;;;11.50;99.90;;;;;;1051479;28;20129;-61
2022/04/06 00:25:19;;;;;;;10.30;6.13;;;11.40;99.90;;;;;;1051364;28;20040;-61
2022/04/06 00:25:49;;;;;;;10.00;5.87;;;11.50;99.90;;;;;;1051574;28;20034;-62
2022/04/06 00:26:20;;;;;;;9.80;6.23;;;11.40;99.90;;;;;;1055905;28;20035;-63
2022/04/06 00:26:50;;;;;;;9.23;6.13;;;11.40;99.90;;;;;;1055723;28;20584;-61
2022/04/06 00:27:21;;;;;;;10.73;6.40;;;11.50;99.90;;;;;;1056103;28;20023;-61
2022/04/06 00:27:51;;;;;;;11.57;6.60;;;11.40;99.90;;;;;;1055903;28;20051;-61
2022/04/06 00:28:22;;;;;;;8.60;5.73;;;11.40;99.90;;;;;;1056150;28;20022;-61
2022/04/06 00:28:52;;;;;;;10.30;5.97;;;11.40;99.90;;;;;;1056063;28;20023;-62
2022/04/06 00:29:23;;;;;;;8.93;6.10;;;11.40;99.90;;;;;;1056100;28;20092;-62
2022/04/06 00:29:54;;;;;;;7.63;5.53;;;11.40;99.90;;;;;;1055942;28;20008;-61
2022/04/06 00:30:24;;;;;;;9.70;5.93;;;11.40;99.90;;;;;;1056190;28;20010;-62
2022/04/06 00:30:55;;;;;;;8.37;5.43;;;11.40;99.90;;;;;;1051367;28;20019;-61
2022/04/06 00:31:25;;;;;;;12.20;6.60;;;11.40;99.90;;;;;;1051707;28;20347;-61
2022/04/06 00:31:58;;;;;;;9.93;6.07;;;11.40;99.90;;;;;;1047178;28;20469;-62
2022/04/06 00:32:29;;;;;;;12.57;6.15;;;11.40;99.90;;;;;;1051364;28;20563;-62
2022/04/06 00:32:59;;;;;;;9.37;6.20;;;11.40;99.90;;;;;;1055692;28;20452;-62
2022/04/06 00:33:30;;;;;;;11.77;6.07;;;11.40;99.90;;;;;;1055859;28;20020;-62
2022/04/06 00:34:00;;;;;;;10.63;6.23;;;11.40;99.90;;;;;;1055844;28;20027;-61
2022/04/06 00:35:29;;;;;;;8.43;5.95;;;11.40;99.90;;;;;;1055856;28;20069;-61
2022/04/06 00:36:00;;;;;;;9.00;5.55;;;11.40;99.90;;;;;;1050298;28;20017;-61
2022/04/06 00:36:30;;;;;;;8.80;5.63;;;11.40;99.90;;;;;;1051384;28;20016;-62
2022/04/06 00:37:01;;;;;;;9.77;5.90;;;11.40;99.90;;;;;;1051386;28;20015;-62
2022/04/06 00:37:31;;;;;;;11.23;7.13;;;11.40;99.90;;;;;;1051766;28;20095;-61
2022/04/06 00:38:04;;;;;;;12.67;7.17;;;11.40;99.90;;;;;;1055701;28;20008;-61
2022/04/06 00:38:34;;;;;;;10.02;5.93;;;11.40;99.90;;;;;;1051440;28;20016;-62
2022/04/06 00:39:05;;;;;;;9.57;6.10;;;11.40;99.90;;;;;;1051512;28;20016;-62
2022/04/06 00:39:38;;;;;;;11.30;5.67;;;11.40;99.90;;;;;;1051556;28;20024;-62
2022/04/06 00:40:09;;;;;;;9.63;6.00;;;11.40;99.90;;;;;;1051979;28;20098;-62
2022/04/06 00:40:40;;;;;;;10.43;5.77;;;11.40;99.90;;;;;;1056198;28;20107;-61
2022/04/06 00:41:10;;;;;;;9.03;5.43;;;11.40;99.90;;;;;;1055825;28;20004;-61
2022/04/06 00:41:41;;;;;;;10.07;6.80;;;11.40;99.90;;;;;;1056267;28;20011;-61
2022/04/06 00:42:12;;;;;;;8.40;5.83;;;11.40;99.90;;;;;;1051324;28;20047;-61
2022/04/06 00:42:42;;;;;;;8.77;5.63;;;11.40;99.90;;;;;;1051647;28;20253;-61
2022/04/06 00:43:14;;;;;;;9.40;6.03;;;11.40;99.90;;;;;;1051271;28;20009;-61
2022/04/06 00:43:44;;;;;;;11.68;5.45;;;11.40;99.90;;;;;;1047510;28;20015;-62
2022/04/06 00:44:18;;;;;;;9.70;6.40;;;11.40;99.90;;;;;;1051367;28;20046;-62
2022/04/06 00:44:49;;;;;;;6.85;5.63;;;11.40;99.90;;;;;;1051552;28;20017;-61
2022/04/06 00:45:21;;;;;;;10.20;6.07;;;11.40;99.90;;;;;;1051345;28;20017;-62
2022/04/06 00:45:51;;;;;;;13.55;6.53;;;11.40;99.90;;;;;;1051439;28;20417;-61
2022/04/06 00:46:22;;;;;;;9.53;6.20;;;11.40;99.90;;;;;;1051508;28;20533;-61
2022/04/06 00:46:53;;;;;;;8.03;5.03;;;11.40;99.90;;;;;;1051775;28;20109;-62
2022/04/06 00:47:23;;;;;;;11.17;6.27;;;11.40;99.90;;;;;;1055981;28;20616;-63
2022/04/06 00:47:54;;;;;;;9.90;6.37;;;11.40;99.90;;;;;;1055991;28;20566;-62
2022/04/06 00:48:25;;;;;;;11.90;6.13;;;11.40;99.90;;;;;;1056147;28;20007;-61
2022/04/06 00:48:55;;;;;;;8.68;5.13;;;11.40;99.90;;;;;;1055931;28;20019;-61
2022/04/06 00:49:26;;;;;;;10.83;6.13;;;11.40;99.90;;;;;;1056190;28;20075;-62
2022/04/06 00:49:56;;;;;;;8.33;5.40;;;11.40;99.90;;;;;;1055893;28;20027;-62
2022/04/06 00:50:27;;;;;;;12.70;6.87;;;11.40;99.90;;;;;;1055944;28;20048;-61
2022/04/06 00:50:58;;;;;;;9.80;5.93;;;11.40;99.90;;;;;;1054283;28;20008;-61
2022/04/06 00:51:30;;;;;;;10.55;6.18;;;11.40;99.90;;;;;;1043104;28;20358;-61
2022/04/06 00:52:03;;;;;;;13.15;6.50;;;11.40;99.90;;;;;;1043178;28;20028;-62
2022/04/06 00:52:35;;;;;;;11.55;6.25;;;11.40;99.90;;;;;;1043184;28;20336;-61
2022/04/06 00:53:06;;;;;;;11.40;5.80;;;11.40;99.90;;;;;;1044718;28;20374;-61
2022/04/06 00:53:36;;;;;;;10.65;6.78;;;11.40;99.90;;;;;;1051669;28;20420;-61
2022/04/06 00:54:08;;;;;;;8.63;5.47;;;11.40;99.90;;;;;;1051685;28;20440;-62
2022/04/06 00:54:39;;;;;;;9.43;6.22;;;11.40;99.90;;;;;;1051799;28;20405;-61
2022/04/06 00:55:12;;;;;;;10.05;5.10;;;11.40;99.90;;;;;;1051692;28;20031;-63
2022/04/06 00:55:43;;;;;;;7.32;5.43;;;11.40;99.90;;;;;;1051791;28;20052;-61
2022/04/06 00:56:13;;;;;;;7.77;5.53;;;11.40;99.90;;;;;;1051673;28;20016;-61
2022/04/06 00:56:45;;;;;;;10.57;6.53;;;11.40;99.90;;;;;;1051736;28;20016;-62
2022/04/06 00:57:19;;;;;;;11.15;6.35;;;11.40;99.90;;;;;;1047486;28;20028;-61
2022/04/06 00:57:50;;;;;;;10.20;5.32;;;11.40;99.90;;;;;;1046508;28;20055;-63
2022/04/06 00:58:21;;;;;;;9.38;5.63;;;11.40;99.90;;;;;;1047369;28;20348;-62
2022/04/06 00:58:52;;;;;;;8.63;5.70;;;11.40;99.90;;;;;;1047198;28;20093;-61
2022/04/06 00:59:24;;;;;;;8.93;5.67;;;11.40;99.90;;;;;;1047654;28;21051;-61
2022/04/06 00:59:56;;;;;;;7.00;5.32;;;11.40;99.90;;;;;;1051691;28;20055;-62
2022/04/06 01:00:27;;;;;;;8.88;5.75;;;11.40;99.90;;;;;;1051911;28;20392;-61
2022/04/06 01:00:58;;;;;;;10.50;5.57;;;11.40;99.90;;;;;;1051509;28;20016;-61
2022/04/06 01:01:28;;;;;;;10.07;5.87;;;11.40;99.90;;;;;;1051669;28;20024;-61
2022/04/06 01:01:59;;;;;;;8.90;5.60;;;11.40;99.90;;;;;;1051621;28;20115;-61
2022/04/06 01:02:30;;;;;;;7.93;4.72;;;11.40;99.90;;;;;;1051819;28;20028;-61
2022/04/06 01:03:01;;;;;;;11.60;5.47;;;11.40;99.90;;;;;;1051673;28;20020;-61
2022/04/06 01:03:32;;;;;;;7.45;5.30;;;11.40;99.90;;;;;;1051717;28;22232;-61
2022/04/06 01:04:03;;;;;;;11.30;5.90;;;11.40;99.90;;;;;;1051601;28;20104;-62
2022/04/06 01:04:33;;;;;;;8.25;5.50;;;11.40;99.90;;;;;;1054693;28;20020;-61
2022/04/06 01:05:05;;;;;;;8.83;5.70;;;11.40;99.90;;;;;;1055944;28;20015;-62
2022/04/06 01:05:35;;;;;;;11.65;6.35;;;11.40;99.90;;;;;;1055953;28;20165;-61
2022/04/06 01:06:07;;;;;;;11.10;5.70;;;11.40;99.90;;;;;;1053206;28;20008;-61
2022/04/06 01:06:38;;;;;;;11.45;6.28;;;11.40;99.90;;;;;;1051757;28;20507;-61
2022/04/06 01:07:09;;;;;;;10.33;6.47;;;11.40;99.90;;;;;;1051655;28;20012;-62
2022/04/06 01:07:42;;;;;;;10.57;5.85;;;11.40;99.90;;;;;;1047368;28;20243;-62
2022/04/06 01:08:13;;;;;;;10.77;5.60;;;11.40;99.90;;;;;;1047145;28;20486;-61
2022/04/06 01:08:43;;;;;;;11.70;5.73;;;11.40;99.90;;;;;;1047250;28;20475;-61
2022/04/06 01:09:18;;;;;;;7.97;5.50;;;11.40;99.90;;;;;;1047647;28;20008;-61
2022/04/06 01:09:49;;;;;;;10.18;5.07;;;11.40;99.90;;;;;;1051666;28;20083;-62
2022/04/06 01:10:19;;;;;;;11.33;5.73;;;11.40;99.90;;;;;;1051853;28;20362;-61
2022/04/06 01:10:50;;;;;;;9.73;5.13;;;11.40;99.90;;;;;;1051623;28;20012;-61
2022/04/06 01:11:21;;;;;;;10.63;4.93;;;11.40;99.90;;;;;;1051818;28;20013;-62
2022/04/06 01:11:52;;;;;;;12.32;5.82;;;11.40;99.90;;;;;;1051596;28;20013;-62
2022/04/06 01:12:24;;;;;;;8.55;4.63;;;11.40;99.90;;;;;;1052409;28;20024;-60
2022/04/06 01:12:56;;;;;;;8.98;4.80;;;11.40;99.90;;;;;;1043687;28;20017;-61
2022/04/06 01:13:27;;;;;;;7.40;5.32;;;11.40;99.90;;;;;;1044110;28;20036;-61
2022/04/06 01:13:58;;;;;;;9.35;5.28;;;11.40;99.90;;;;;;1047833;28;20024;-62
2022/04/06 01:14:29;;;;;;;10.80;5.28;;;11.40;99.90;;;;;;1049255;28;20059;-63
2022/04/06 01:15:00;;;;;;;8.93;5.13;;;11.40;99.90;;;;;;1056440;28;20004;-60
2022/04/06 01:15:31;;;;;;;10.00;5.50;;;11.40;99.90;;;;;;1052516;28;20027;-62
2022/04/06 01:16:02;;;;;;;8.25;4.82;;;11.40;99.90;;;;;;1051947;28;20087;-62
2022/04/06 01:16:32;;;;;;;6.37;5.67;;;11.40;99.90;;;;;;1052488;28;20016;-62
2022/04/06 01:17:07;;;;;;;9.17;5.60;;;11.40;99.90;;;;;;1052406;28;20254;-62
2022/04/06 01:17:38;;;;;;;10.80;5.45;;;11.40;99.90;;;;;;1056690;28;20015;-62
2022/04/06 01:18:09;;;;;;;11.93;6.10;;;11.40;99.90;;;;;;1056296;28;20099;-62
2022/04/06 01:18:41;;;;;;;8.60;4.88;;;11.40;99.90;;;;;;1056783;28;20343;-62
2022/04/06 01:19:11;;;;;;;12.52;5.05;;;11.40;99.90;;;;;;1056142;28;20022;-63
2022/04/06 01:19:44;;;;;;;9.37;4.93;;;11.40;99.90;;;;;;1056661;28;20061;-62
2022/04/06 01:20:15;;;;;;;8.40;4.70;;;11.40;99.90;;;;;;1056788;28;20022;-62
2022/04/06 01:20:45;;;;;;;7.15;4.88;;;11.40;99.90;;;;;;1056902;28;20000;-62
2022/04/06 01:21:16;;;;;;;11.40;5.63;;;11.40;99.90;;;;;;1056177;28;20016;-62
2022/04/06 01:21:46;;;;;;;12.83;5.73;;;11.30;99.90;;;;;;1056575;28;20374;-62
2022/04/06 01:22:19;;;;;;;10.67;5.60;;;11.40;99.90;;;;;;1053053;28;20016;-62
2022/04/06 01:22:50;;;;;;;10.80;5.35;;;11.40;99.90;;;;;;1052876;28;20048;-62
2022/04/06 01:23:21;;;;;;;10.87;4.80;;;11.40;99.90;;;;;;1054323;28;20012;-62
2022/04/06 01:23:52;;;;;;;11.00;5.37;;;11.40;99.90;;;;;;1052653;28;20020;-62
2022/04/06 01:24:23;;;;;;;8.70;4.85;;;11.30;99.90;;;;;;1052417;28;20087;-62
2022/04/06 01:24:53;;;;;;;10.80;5.13;;;11.30;99.90;;;;;;1052538;28;20020;-62
2022/04/06 01:25:27;;;;;;;9.37;5.07;;;11.30;99.90;;;;;;1052644;28;20027;-62
2022/04/06 01:25:57;;;;;;;9.43;5.40;;;11.30;99.90;;;;;;1052664;28;20089;-62
2022/04/06 01:26:28;;;;;;;9.07;5.03;;;11.30;99.90;;;;;;1052465;28;20044;-62
2022/04/06 01:27:02;;;;;;;8.10;5.13;;;11.30;99.90;;;;;;1052430;28;20016;-62
2022/04/06 01:27:33;;;;;;;9.85;5.32;;;11.30;99.90;;;;;;1052231;28;20075;-62
2022/04/06 01:28:04;;;;;;;11.70;5.50;;;11.30;99.90;;;;;;1052716;28;20034;-62
2022/04/06 01:28:35;;;;;;;9.57;5.30;;;11.30;99.90;;;;;;1054654;28;20024;-62
2022/04/06 01:29:06;;;;;;;10.82;5.70;;;11.40;99.90;;;;;;1056730;28;20043;-62
2022/04/06 01:29:38;;;;;;;11.47;5.33;;;11.40;99.90;;;;;;1056367;28;20015;-62
2022/04/06 01:30:08;;;;;;;12.95;5.07;;;11.30;99.90;;;;;;1056670;28;20030;-62
2022/04/06 01:30:39;;;;;;;12.02;6.03;;;11.40;99.90;;;;;;1051957;28;20016;-61
2022/04/06 01:31:10;;;;;;;8.43;5.55;;;11.30;99.90;;;;;;1048014;28;20025;-61
2022/04/06 01:31:41;;;;;;;9.70;5.07;;;11.30;99.90;;;;;;1047933;28;20130;-61
2022/04/06 01:32:20;;;;;;;10.63;4.87;;;11.30;99.90;;;;;;1048179;28;20498;-62
2022/04/06 01:32:51;;;;;;;9.95;4.82;;;11.30;99.90;;;;;;1053422;28;20411;-60
2022/04/06 01:33:22;;;;;;;9.20;5.67;;;11.30;99.90;;;;;;1056965;28;20432;-61
2022/04/06 01:33:52;;;;;;;8.23;4.90;;;11.30;99.90;;;;;;1056373;28;20019;-63
2022/04/06 01:34:23;;;;;;;8.67;4.97;;;11.30;99.90;;;;;;1056990;28;20296;-62
2022/04/06 01:34:54;;;;;;;7.53;5.03;;;11.30;99.90;;;;;;1056443;28;20082;-61
2022/04/06 01:35:25;;;;;;;11.15;5.75;;;11.30;99.90;;;;;;1056880;28;20438;-62
2022/04/06 01:35:57;;;;;;;9.70;4.88;;;11.30;99.90;;;;;;1051968;28;20013;-61
2022/04/06 01:36:27;;;;;;;10.27;4.95;;;11.30;99.90;;;;;;1052401;28;20456;-62
2022/04/06 01:36:57;;;;;;;9.57;5.40;;;11.30;99.90;;;;;;1051926;28;20024;-61
2022/04/06 01:37:28;;;;;;;9.93;5.33;;;11.30;99.90;;;;;;1052471;28;20020;-60
2022/04/06 01:37:59;;;;;;;10.90;5.87;;;11.30;99.90;;;;;;1056440;28;20012;-61
2022/04/06 01:38:30;;;;;;;6.97;4.53;;;11.30;99.90;;;;;;1056988;28;20047;-61
2022/04/06 01:39:00;;;;;;;11.30;5.80;;;11.30;99.90;;;;;;1051951;28;20020;-60
2022/04/06 01:39:32;;;;;;;13.17;6.17;;;11.30;99.90;;;;;;1052325;28;20262;-61
2022/04/06 01:40:05;;;;;;;8.70;5.60;;;11.30;99.90;;;;;;1051888;28;20020;-62
2022/04/06 01:40:35;;;;;;;11.88;5.57;;;11.30;99.90;;;;;;1052893;28;20023;-61
2022/04/06 01:41:06;;;;;;;8.97;5.53;;;11.30;99.90;;;;;;1056387;28;20150;-62
2022/04/06 01:41:37;;;;;;;10.10;5.33;;;11.30;99.90;;;;;;1056750;28;20018;-62
2022/04/06 01:42:11;;;;;;;7.70;4.88;;;11.30;99.90;;;;;;1056508;28;20500;-62
2022/04/06 01:42:42;;;;;;;9.95;4.90;;;11.30;99.90;;;;;;1052165;28;20470;-63
2022/04/06 01:43:12;;;;;;;9.20;4.97;;;11.30;99.90;;;;;;1051742;28;20047;-62
2022/04/06 01:43:43;;;;;;;7.80;4.47;;;11.30;99.90;;;;;;1047869;28;20016;-63
2022/04/06 01:44:13;;;;;;;7.07;5.37;;;11.30;99.90;;;;;;1047658;28;20059;-64
2022/04/06 01:44:45;;;;;;;10.10;5.63;;;11.30;99.90;;;;;;1052226;28;20019;-60
2022/04/06 01:45:16;;;;;;;9.68;6.38;;;11.30;99.90;;;;;;1051795;28;20390;-61
2022/04/06 01:45:47;;;;;;;11.33;5.53;;;11.30;99.90;;;;;;1052141;28;20348;-62
2022/04/06 01:46:17;;;;;;;8.23;5.43;;;11.30;99.90;;;;;;1052090;28;20114;-62
2022/04/06 01:46:48;;;;;;;9.57;5.60;;;11.30;99.90;;;;;;1052327;28;20012;-63
2022/04/06 01:47:20;;;;;;;12.00;6.07;;;11.30;99.90;;;;;;1056512;28;20019;-63
2022/04/06 01:47:50;;;;;;;12.15;6.30;;;11.30;99.90;;;;;;1056619;28;20069;-63
2022/04/06 01:48:21;;;;;;;12.03;6.37;;;11.30;99.90;;;;;;1056743;28;20020;-63
2022/04/06 01:52:13;;;;;;;10.38;5.78;;;11.30;99.90;;;;;;1052367;28;20651;-62
2022/04/06 01:52:44;;;;;;;7.15;4.57;;;11.30;99.90;;;;;;1052360;28;20641;-63
2022/04/06 01:53:15;;;;;;;8.93;5.10;;;11.30;99.90;;;;;;1052470;28;20431;-61
2022/04/06 01:53:50;;;;;;;10.40;5.70;;;11.30;99.90;;;;;;1053414;28;20099;-63
2022/04/06 01:54:20;;;;;;;8.18;5.13;;;11.30;99.90;;;;;;1056895;28;20088;-60
2022/04/06 01:55:06;;;;;;;9.40;5.03;;;11.30;99.90;;;;;;1056294;28;20077;-62
2022/04/06 01:55:37;;;;;;;9.80;5.70;;;11.30;99.90;;;;;;1056640;28;20024;-61
2022/04/06 01:56:07;;;;;;;7.67;5.40;;;11.30;99.90;;;;;;1056562;28;20027;-61
2022/04/06 01:56:38;;;;;;;9.80;5.20;;;11.30;99.90;;;;;;1056744;28;20027;-62
2022/04/06 01:57:08;;;;;;;7.40;5.00;;;11.30;99.90;;;;;;1056584;28;20020;-61
2022/04/06 01:57:40;;;;;;;10.17;5.50;;;11.30;99.90;;;;;;1056645;28;20015;-61
2022/04/06 01:58:11;;;;;;;9.75;5.00;;;11.30;99.90;;;;;;1056381;28;20787;-61
2022/04/06 01:58:41;;;;;;;11.35;6.03;;;11.30;99.90;;;;;;1044524;28;20056;-61
2022/04/06 01:59:12;;;;;;;10.33;5.80;;;11.30;99.90;;;;;;1043817;28;20108;-62
2022/04/06 01:59:43;;;;;;;13.80;6.10;;;11.30;99.90;;;;;;1043930;28;20024;-61
2022/04/06 02:00:17;;;;;;;11.82;5.95;;;11.30;99.90;;;;;;1044198;28;20031;-61
2022/04/06 02:00:47;;;;;;;9.88;6.03;;;11.30;99.90;;;;;;1047795;28;20562;-61
2022/04/06 02:01:18;;;;;;;10.43;5.60;;;11.30;99.90;;;;;;1047825;28;20391;-61
2022/04/06 02:01:54;;;;;;;11.47;5.70;;;11.30;99.90;;;;;;1048166;28;20082;-61
2022/04/06 02:02:30;;;;;;;9.93;5.47;;;11.30;99.90;;;;;;1047868;28;20115;-61
2022/04/06 02:03:01;;;;;;;10.07;6.00;;;11.30;99.90;;;;;;1046959;28;20028;-61
2022/04/06 02:03:32;;;;;;;10.40;6.13;;;11.30;99.90;;;;;;1043493;28;20039;-61
2022/04/06 02:04:06;;;;;;;9.80;5.37;;;11.30;99.90;;;;;;1044523;28;20009;-62
2022/04/06 02:04:38;;;;;;;9.07;5.50;;;11.30;99.90;;;;;;1048401;28;20032;-62
2022/04/06 02:05:08;;;;;;;9.23;4.82;;;11.30;99.90;;;;;;1052920;28;20005;-62
2022/04/06 02:05:39;;;;;;;8.87;4.80;;;11.30;99.90;;;;;;1051886;28;20022;-61
2022/04/06 02:06:10;;;;;;;9.20;5.43;;;11.30;99.90;;;;;;1051845;28;20048;-62
2022/04/06 02:06:41;;;;;;;9.73;5.30;;;11.30;99.90;;;;;;1047887;28;20125;-65
2022/04/06 02:07:13;;;;;;;8.20;5.07;;;11.30;99.90;;;;;;1047902;28;20070;-61
2022/04/06 02:07:48;;;;;;;11.85;5.53;;;11.30;99.90;;;;;;1052089;28;20095;-61
2022/04/06 02:08:18;;;;;;;8.07;5.55;;;11.30;99.90;;;;;;1051758;28;20394;-61
2022/04/06 02:08:49;;;;;;;7.40;4.93;;;11.30;99.90;;;;;;1052032;28;20627;-61
2022/04/06 02:09:20;;;;;;;10.13;5.80;;;11.30;99.90;;;;;;1051983;28;20101;-62
2022/04/06 02:09:51;;;;;;;9.85;5.35;;;11.30;99.90;;;;;;1053031;28;20035;-61
2022/04/06 02:10:22;;;;;;;8.97;5.13;;;11.30;99.90;;;;;;1056206;28;20366;-62
2022/04/06 02:10:52;;;;;;;9.30;4.85;;;11.30;99.90;;;;;;1056160;28;20091;-61
2022/04/06 02:11:23;;;;;;;12.37;5.20;;;11.30;99.90;;;;;;1056217;28;20007;-61
2022/04/06 02:11:55;;;;;;;8.57;4.90;;;11.30;99.90;;;;;;1056237;28;20612;-62
2022/04/06 02:12:26;;;;;;;7.80;5.18;;;11.30;99.90;;;;;;1056826;28;20092;-61
2022/04/06 02:12:58;;;;;;;11.43;5.82;;;11.30;99.90;;;;;;1051650;28;20528;-62
2022/04/06 02:13:28;;;;;;;10.68;5.40;;;11.30;99.90;;;;;;1047899;28;20012;-61
2022/04/06 02:13:59;;;;;;;8.40;5.50;;;11.30;99.90;;;;;;1047771;28;20080;-62
2022/04/06 02:14:29;;;;;;;9.40;5.67;;;11.30;99.90;;;;;;1047878;28;20394;-62
2022/04/06 02:15:00;;;;;;;10.80;5.20;;;11.30;99.90;;;;;;1047980;28;20555;-61
2022/04/06 02:15:31;;;;;;;8.75;4.90;;;11.30;99.90;;;;;;1047719;28;20103;-60
2022/04/06 02:16:02;;;;;;;13.40;5.57;;;11.30;99.90;;;;;;1043491;28;20015;-61
2022/04/06 02:16:34;;;;;;;11.23;6.13;;;11.30;99.90;;;;;;1043726;28;20149;-63
2022/04/06 02:17:07;;;;;;;11.15;5.40;;;11.30;99.90;;;;;;1043949;28;20005;-62
2022/04/06 02:17:39;;;;;;;9.95;5.30;;;11.30;99.90;;;;;;1048455;28;20016;-61
2022/04/06 02:18:10;;;;;;;10.45;5.32;;;11.30;99.90;;;;;;1051888;28;20016;-61
2022/04/06 02:18:41;;;;;;;7.70;4.73;;;11.30;99.90;;;;;;1052393;28;20004;-62
2022/04/06 02:19:12;;;;;;;10.07;4.13;;;11.30;99.90;;;;;;1052139;28;20368;-62
2022/04/06 02:19:42;;;;;;;6.87;4.73;;;11.30;99.90;;;;;;1047902;28;20144;-61
2022/04/06 02:20:13;;;;;;;8.57;5.43;;;11.30;99.90;;;;;;1047675;28;20005;-61
2022/04/06 02:20:44;;;;;;;11.57;5.40;;;11.30;99.90;;;;;;1047879;28;20040;-62
2022/04/06 02:21:15;;;;;;;8.67;4.80;;;11.30;99.90;;;;;;1047847;28;20016;-61
2022/04/06 02:21:45;;;;;;;9.90;5.70;;;11.30;99.90;;;;;;1052360;28;20497;-62
2022/04/06 02:22:18;;;;;;;8.67;5.20;;;11.30;99.90;;;;;;1055038;28;20022;-61
2022/04/06 02:22:49;;;;;;;7.95;5.50;;;11.30;99.90;;;;;;1056530;28;20348;-62
2022/04/06 02:23:20;;;;;;;9.00;5.70;;;11.30;99.90;;;;;;1054221;28;20014;-62
2022/04/06 02:23:50;;;;;;;12.23;5.43;;;11.30;99.90;;;;;;1051938;28;20047;-62
2022/04/06 02:24:21;;;;;;;11.53;5.00;;;11.30;99.90;;;;;;1052000;28;20016;-62
2022/04/06 02:24:52;;;;;;;12.10;5.90;;;11.30;99.90;;;;;;1055021;28;20016;-64
2022/04/06 02:25:23;;;;;;;9.02;5.50;;;11.30;99.90;;;;;;1056483;28;20020;-61
2022/04/06 02:25:53;;;;;;;9.13;5.27;;;11.30;99.90;;;;;;1056531;28;20004;-61
2022/04/06 02:26:24;;;;;;;9.80;5.37;;;11.30;99.90;;;;;;1056328;28;20027;-62
2022/04/06 02:26:54;;;;;;;9.60;4.87;;;11.30;99.90;;;;;;1056601;28;20090;-61
2022/04/06 02:27:25;;;;;;;8.67;5.53;;;11.30;99.90;;;;;;1056400;28;20768;-63
2022/04/06 02:27:56;;;;;;;10.13;4.97;;;11.30;99.90;;;;;;1051945;28;20024;-61
2022/04/06 02:28:26;;;;;;;7.53;4.40;;;11.30;99.90;;;;;;1051810;28;20485;-62
2022/04/06 02:28:59;;;;;;;8.87;5.13;;;11.30;99.90;;;;;;1052085;28;20398;-62
2022/04/06 02:29:30;;;;;;;9.43;4.95;;;11.30;99.90;;;;;;1047765;28;20020;-61
2022/04/06 02:30:00;;;;;;;10.63;5.03;;;11.30;99.90;;;;;;1052210;28;20020;-62
2022/04/06 02:30:31;;;;;;;8.57;4.73;;;11.30;99.90;;;;;;1051683;28;20031;-62
2022/04/06 02:31:01;;;;;;;8.43;4.47;;;11.30;99.90;;;;;;1047534;28;20498;-61
2022/04/06 02:31:32;;;;;;;7.50;4.60;;;11.30;99.90;;;;;;1047522;28;20557;-61
2022/04/06 02:32:04;;;;;;;7.68;4.95;;;11.30;99.90;;;;;;1047892;28;20040;-61
2022/04/06 02:32:35;;;;;;;7.35;4.32;;;11.30;99.90;;;;;;1047815;28;20021;-62
2022/04/06 02:33:05;;;;;;;9.47;5.40;;;11.30;99.90;;;;;;1051887;28;20016;-62
2022/04/06 02:33:36;;;;;;;9.10;4.87;;;11.30;99.90;;;;;;1051734;28;20020;-62
2022/04/06 02:34:06;;;;;;;8.87;4.47;;;11.30;99.90;;;;;;1051873;28;20031;-61
2022/04/06 02:34:37;;;;;;;10.57;4.60;;;11.30;99.90;;;;;;1051916;28;20443;-62
2022/04/06 02:35:08;;;;;;;10.53;5.20;;;11.30;99.90;;;;;;1051867;28;20043;-62
2022/04/06 02:35:39;;;;;;;9.50;4.73;;;11.30;99.90;;;;;;1051932;28;20016;-62
2022/04/06 02:36:09;;;;;;;9.80;5.17;;;11.30;99.90;;;;;;1051990;28;20319;-62
2022/04/06 02:36:40;;;;;;;8.20;5.00;;;11.30;99.90;;;;;;1056629;28;20023;-62
2022/04/06 02:37:11;;;;;;;8.77;4.40;;;11.30;99.90;;;;;;1056246;28;20472;-61
2022/04/06 02:37:44;;;;;;;10.43;4.63;;;11.30;99.90;;;;;;1052002;28;20020;-62
2022/04/06 02:38:14;;;;;;;7.28;4.40;;;11.30;99.90;;;;;;1051768;28;20020;-62
2022/04/06 02:38:47;;;;;;;9.23;6.10;;;11.30;99.90;;;;;;1051992;28;20012;-61
2022/04/06 02:39:17;;;;;;;7.63;4.95;;;11.30;99.90;;;;;;1052521;28;20016;-61
2022/04/06 02:39:49;;;;;;;7.90;4.70;;;11.30;99.90;;;;;;1047685;28;20024;-62
2022/04/06 02:40:20;;;;;;;8.80;4.88;;;11.30;99.90;;;;;;1047790;28;20016;-63
2022/04/06 02:40:50;;;;;;;8.40;4.93;;;11.30;99.90;;;;;;1047748;28;20020;-61
2022/04/06 02:41:21;;;;;;;9.73;5.50;;;11.30;99.90;;;;;;1048397;28;20020;-61
2022/04/06 02:41:53;;;;;;;7.67;4.73;;;11.30;99.90;;;;;;1056496;28;20167;-62
2022/04/06 02:42:23;;;;;;;10.38;4.78;;;11.30;99.90;;;;;;1056413;28;20080;-61
2022/04/06 02:42:54;;;;;;;7.57;4.73;;;11.30;99.90;;;;;;1051761;28;20062;-62
2022/04/06 02:43:25;;;;;;;9.93;5.03;;;11.30;99.90;;;;;;1047691;28;20024;-62
2022/04/06 02:43:55;;;;;;;8.27;4.47;;;11.30;99.90;;;;;;1047772;28;20088;-62
2022/04/06 02:44:26;;;;;;;5.73;4.63;;;11.30;99.90;;;;;;1047783;28;20022;-61
2022/04/06 02:44:57;;;;;;;8.67;5.07;;;11.30;99.90;;;;;;1051832;28;20371;-62
2022/04/06 02:45:27;;;;;;;8.30;4.90;;;11.30;99.90;;;;;;1051945;28;20012;-62